createdAt,value
2022-08-21T06:26:48.713Z,99.90
2022-08-21T06:35:57.115Z,99.90
2022-08-21T06:39:01.752Z,99.90
2022-08-21T06:45:07.678Z,99.90
2022-08-21T06:47:51.612Z,99.90
2022-08-21T06:50:36.019Z,99.90
2022-08-21T06:53:17.690Z,99.90
2022-08-21T07:01:18.974Z,99.90
2022-08-21T07:04:06.404Z,99.90
2022-08-21T07:09:40.628Z,99.90
2022-08-21T07:12:27.510Z,99.90
2022-08-21T07:15:11.175Z,99.90
2022-08-21T07:20:36.350Z,99.90
2022-08-21T07:23:12.082Z,99.90
2022-08-21T07:28:30.424Z,99.90
2022-08-21T07:33:50.527Z,99.90
2022-08-21T07:36:30.930Z,99.90
2022-08-21T07:39:27.169Z,99.90
2022-08-21T07:42:08.193Z,99.90
2022-08-21T07:44:44.498Z,99.90
2022-08-21T07:47:41.871Z,99.90
2022-08-21T07:50:44.394Z,99.90
2022-08-21T07:53:30.926Z,99.90
2022-08-21T07:59:20.008Z,99.90
2022-08-21T08:02:05.875Z,99.90
2022-08-21T08:04:51.169Z,99.90
2022-08-21T08:10:18.534Z,99.90
2022-08-21T08:12:59.610Z,99.90
2022-08-21T08:15:41.885Z,99.90
2022-08-21T08:18:33.850Z,99.90
2022-08-21T08:21:10.213Z,99.90
2022-08-21T08:26:30.794Z,99.90
2022-08-21T08:29:13.442Z,99.90
2022-08-21T08:31:56.093Z,99.90
2022-08-21T08:37:34.259Z,99.90
2022-08-21T08:40:11.665Z,99.90
2022-08-21T08:42:58.270Z,99.90
2022-08-21T08:45:53.867Z,99.90
2022-08-21T08:48:34.541Z,99.90
2022-08-21T08:51:21.168Z,99.90
2022-08-21T08:57:21.910Z,99.90
2022-08-21T09:00:12.574Z,99.90
2022-08-21T09:03:10.435Z,99.80
2022-08-21T09:06:40.787Z,99.90
2022-08-21T09:09:47.280Z,98.20
2022-08-21T09:15:06.288Z,99.60
2022-08-21T09:17:54.707Z,97.10
2022-08-21T09:21:17.563Z,94.80
2022-08-21T09:23:52.494Z,94.30
2022-08-21T09:26:52.338Z,96.50
2022-08-21T09:32:37.068Z,93.60
2022-08-21T09:35:16.019Z,93.60
2022-08-21T09:38:26.764Z,95.60
2022-08-21T09:41:14.460Z,94.60
2022-08-21T09:43:52.116Z,93.80
2022-08-21T09:46:33.603Z,92.50
2022-08-21T09:52:08.123Z,93.80
2022-08-21T09:54:54.449Z,91.20
2022-08-21T09:57:29.506Z,89.50
2022-08-21T10:00:28.990Z,89.90
2022-08-21T10:03:26.619Z,88.20
2022-08-21T10:08:47.368Z,91.90
2022-08-21T10:11:31.503Z,89.50
2022-08-21T10:14:06.907Z,89.30
2022-08-21T10:17:14.019Z,87.90
2022-08-21T10:25:07.380Z,80.20
2022-08-21T10:28:25.732Z,82.60
2022-08-21T10:31:19.374Z,83.80
2022-08-21T10:33:59.655Z,79.80
2022-08-21T10:37:10.847Z,83.50
2022-08-21T10:40:30.160Z,84.80
2022-08-21T10:43:10.499Z,79.70
2022-08-21T10:49:34.953Z,77.60
2022-08-21T10:52:22.447Z,79.30
2022-08-21T10:55:01.899Z,79.50
2022-08-21T10:58:05.623Z,79.50
2022-08-21T11:00:47.197Z,77.20
2022-08-21T11:04:10.264Z,79.60
2022-08-21T11:09:32.409Z,75.50
2022-08-21T11:12:15.922Z,75.40
2022-08-21T11:15:44.538Z,75.40
2022-08-21T11:18:23.942Z,74.70
2022-08-21T11:21:09.973Z,77.40
2022-08-21T11:23:45.501Z,76.60
2022-08-21T11:26:40.781Z,76.40
2022-08-21T11:29:15.759Z,75.80
2022-08-21T11:32:16.365Z,73.90
2022-08-21T11:37:36.307Z,75.50
2022-08-21T11:40:24.822Z,75.60
2022-08-21T11:43:20.200Z,75.70
2022-08-21T11:45:51.533Z,77.30
2022-08-21T11:48:50.368Z,77.10
2022-08-21T11:51:45.796Z,75.30
2022-08-21T11:54:35.403Z,75.90
2022-08-21T11:59:57.311Z,76.50
2022-08-21T12:02:50.452Z,76.30
2022-08-21T12:05:42.287Z,77.20
2022-08-21T12:08:34.214Z,71.20
2022-08-21T12:11:06.231Z,74.60
2022-08-21T12:14:33.659Z,74.70
2022-08-21T12:17:08.860Z,71.70
2022-08-21T12:19:39.778Z,72.30
2022-08-21T12:22:17.077Z,72.80
2022-08-21T12:25:07.916Z,73.10
2022-08-21T12:28:11.898Z,72.00
2022-08-21T12:30:47.395Z,72.00
2022-08-21T12:33:41.966Z,75.10
2022-08-21T12:36:21.107Z,74.70
2022-08-21T12:39:19.922Z,73.20
2022-08-21T12:42:24.027Z,73.30
2022-08-21T12:45:04.323Z,70.40
2022-08-21T12:53:18.643Z,69.70
2022-08-21T12:55:48.153Z,69.40
2022-08-21T12:58:43.422Z,70.20
2022-08-21T13:01:20.854Z,69.40
2022-08-21T13:03:58.869Z,71.40
2022-08-21T13:06:41.652Z,70.50
2022-08-21T13:09:13.921Z,69.30
2022-08-21T13:11:45.119Z,70.60
2022-08-21T13:14:30.027Z,69.70
2022-08-21T13:16:59.789Z,69.80
2022-08-21T13:19:31.790Z,70.40
2022-08-21T13:21:59.595Z,69.90
2022-08-21T13:24:43.367Z,71.40
2022-08-21T13:27:24.418Z,71.00
2022-08-21T13:30:07.708Z,71.60
2022-08-21T13:32:43.716Z,71.30
2022-08-21T13:35:29.523Z,71.10
2022-08-21T13:38:01.861Z,70.50
2022-08-21T13:41:06.279Z,71.20
2022-08-21T13:43:39.565Z,72.30
2022-08-21T13:46:22.888Z,71.10
2022-08-21T13:51:25.834Z,70.20
2022-08-21T13:53:54.319Z,69.80
2022-08-21T13:56:28.799Z,71.30
2022-08-21T13:58:57.811Z,71.80
2022-08-21T14:01:37.323Z,72.00
2022-08-21T14:04:16.122Z,71.50
2022-08-21T14:06:47.046Z,70.30
2022-08-21T14:09:41.683Z,70.20
2022-08-21T14:12:28.990Z,69.50
2022-08-21T14:14:57.930Z,67.10
2022-08-21T14:17:43.301Z,68.90
2022-08-21T14:20:29.195Z,68.10
2022-08-21T14:25:26.376Z,69.10
2022-08-21T14:28:09.579Z,69.90
2022-08-21T14:33:29.771Z,69.50
2022-08-21T14:36:00.440Z,70.10
2022-08-21T14:38:38.756Z,70.00
2022-08-21T14:41:24.900Z,70.60
2022-08-21T14:43:59.762Z,70.20
2022-08-21T14:46:51.633Z,70.60
2022-08-21T14:49:22.883Z,70.40
2022-08-21T14:51:55.620Z,71.10
2022-08-21T14:54:31.370Z,71.30
2022-08-21T14:57:22.441Z,72.50
2022-08-21T14:59:51.855Z,72.50
2022-08-21T15:02:32.147Z,72.40
2022-08-21T15:04:59.680Z,72.50
2022-08-21T15:07:29.340Z,72.20
2022-08-21T15:10:00.745Z,72.30
2022-08-21T15:12:28.035Z,72.80
2022-08-21T15:15:00.628Z,72.40
2022-08-21T15:17:30.576Z,71.80
2022-08-21T15:22:48.702Z,72.30
2022-08-21T15:28:05.343Z,70.70
2022-08-21T15:30:38.442Z,70.70
2022-08-21T15:33:06.191Z,71.30
2022-08-21T15:38:17.490Z,71.80
2022-08-21T15:40:51.561Z,72.70
2022-08-21T15:43:31.630Z,73.10
2022-08-21T15:46:16.304Z,73.80
2022-08-21T15:48:45.352Z,73.80
2022-08-21T15:51:22.431Z,73.90
2022-08-21T15:56:29.833Z,74.70
2022-08-21T15:59:14.268Z,75.00
2022-08-21T16:01:44.933Z,75.00
2022-08-21T16:04:34.380Z,75.00
2022-08-21T16:09:41.055Z,74.80
2022-08-21T16:12:11.611Z,75.40
2022-08-21T16:14:44.339Z,75.00
2022-08-21T16:19:46.509Z,74.90
2022-08-21T16:22:16.079Z,75.30
2022-08-21T16:24:44.336Z,75.40
2022-08-21T16:29:47.783Z,75.70
2022-08-21T16:32:15.450Z,75.70
2022-08-21T16:34:52.629Z,75.80
2022-08-21T16:37:24.569Z,76.00
2022-08-21T16:42:52.947Z,76.50
2022-08-21T16:45:31.092Z,76.40
2022-08-21T16:55:39.566Z,76.70
2022-08-21T16:58:38.337Z,76.30
2022-08-21T17:01:15.482Z,76.40
2022-08-21T17:06:31.280Z,76.90
2022-08-21T17:09:05.278Z,77.40
2022-08-21T17:11:48.623Z,77.40
2022-08-21T17:14:27.413Z,77.20
2022-08-21T17:16:59.067Z,77.50
2022-08-21T17:19:26.217Z,77.40
2022-08-21T17:24:21.205Z,76.90
